createdAt,value
2023-01-29T00:01:40.290Z,71.24
2023-01-29T00:04:13.432Z,71.16
2023-01-29T00:06:48.101Z,71.56
2023-01-29T00:09:21.185Z,71.79
2023-01-29T00:11:54.835Z,71.69
2023-01-29T00:14:28.074Z,71.18
2023-01-29T00:17:01.023Z,71.56
2023-01-29T00:19:34.021Z,71.57
2023-01-29T00:22:08.599Z,71.30
2023-01-29T00:24:41.427Z,71.43
2023-01-29T00:27:14.346Z,71.61
2023-01-29T00:30:07.666Z,71.29
2023-01-29T00:32:40.920Z,71.62
2023-01-29T00:35:14.474Z,72.18
2023-01-29T00:37:49.796Z,71.12
2023-01-29T00:40:24.824Z,71.21
2023-01-29T00:43:16.600Z,71.99
2023-01-29T00:45:49.219Z,72.03
2023-01-29T00:48:22.582Z,71.79
2023-01-29T00:50:55.869Z,71.72
2023-01-29T00:53:30.733Z,71.36
2023-01-29T00:56:03.579Z,71.63
2023-01-29T00:58:36.368Z,72.22
2023-01-29T01:01:09.399Z,71.17
2023-01-29T01:03:43.647Z,71.99
2023-01-29T01:06:16.426Z,72.43
2023-01-29T01:15:39.049Z,71.54
2023-01-29T01:18:12.297Z,72.55
2023-01-29T01:20:45.761Z,71.79
2023-01-29T01:23:19.561Z,72.29
2023-01-29T01:25:53.781Z,72.31
2023-01-29T01:28:27.226Z,71.40
2023-01-29T01:31:09.537Z,71.28
2023-01-29T01:33:42.556Z,71.29
2023-01-29T01:36:16.013Z,71.96
2023-01-29T01:38:48.684Z,71.97
2023-01-29T01:41:24.362Z,71.38
2023-01-29T01:44:00.463Z,71.15
2023-01-29T01:46:35.295Z,71.61
2023-01-29T01:49:12.438Z,71.06
2023-01-29T01:51:49.041Z,70.87
2023-01-29T01:54:28.127Z,71.33
2023-01-29T01:57:12.053Z,71.57
2023-01-29T01:59:50.485Z,70.73
2023-01-29T02:02:43.479Z,71.34
2023-01-29T02:05:35.881Z,70.58
2023-01-29T02:08:28.229Z,70.56
2023-01-29T02:11:01.882Z,70.70
2023-01-29T02:13:37.027Z,71.25
2023-01-29T02:16:10.218Z,71.02
2023-01-29T02:18:43.370Z,70.42
2023-01-29T02:21:29.605Z,70.98
2023-01-29T02:24:39.972Z,70.50
2023-01-29T02:27:16.388Z,71.01
2023-01-29T02:29:59.410Z,70.82
2023-01-29T02:32:41.430Z,71.02
2023-01-29T02:35:32.226Z,70.43
2023-01-29T02:38:18.278Z,70.78
2023-01-29T02:40:56.801Z,70.80
2023-01-29T02:43:37.409Z,70.46
2023-01-29T02:46:19.448Z,70.45
2023-01-29T02:48:59.244Z,70.70
2023-01-29T02:51:38.000Z,70.86
2023-01-29T02:54:17.992Z,71.31
2023-01-29T02:56:56.771Z,70.92
2023-01-29T02:59:36.228Z,70.35
2023-01-29T03:02:16.590Z,70.95
2023-01-29T03:04:53.311Z,71.14
2023-01-29T03:07:42.555Z,70.15
2023-01-29T03:10:22.220Z,70.54
2023-01-29T03:13:00.181Z,71.19
2023-01-29T03:15:39.568Z,71.10
2023-01-29T03:18:31.705Z,71.16
2023-01-29T03:21:33.865Z,70.80
2023-01-29T03:24:28.451Z,71.17
2023-01-29T03:27:25.759Z,71.04
2023-01-29T03:30:19.992Z,71.51
2023-01-29T03:33:13.186Z,71.27
2023-01-29T03:35:54.226Z,70.30
2023-01-29T03:38:31.780Z,70.93
2023-01-29T03:41:09.417Z,71.38
2023-01-29T03:43:51.870Z,71.11
2023-01-29T03:46:30.470Z,71.36
2023-01-29T03:49:12.781Z,70.76
2023-01-29T03:51:55.714Z,71.29
2023-01-29T03:54:40.073Z,71.41
2023-01-29T03:57:18.268Z,70.85
2023-01-29T04:00:04.548Z,71.48
2023-01-29T04:02:56.303Z,70.66
2023-01-29T04:05:36.717Z,71.34
2023-01-29T04:08:28.602Z,70.74
2023-01-29T04:11:12.654Z,71.11
2023-01-29T04:13:47.610Z,71.78
2023-01-29T04:16:28.784Z,71.82
2023-01-29T04:19:25.826Z,71.36
2023-01-29T04:22:07.930Z,71.08
2023-01-29T04:24:43.000Z,70.96
2023-01-29T04:27:27.467Z,70.92
2023-01-29T04:30:17.763Z,71.59
2023-01-29T04:33:03.912Z,70.94
2023-01-29T04:35:53.370Z,71.12
2023-01-29T04:38:39.202Z,70.99
2023-01-29T04:41:21.112Z,71.76
2023-01-29T04:44:01.188Z,71.89
2023-01-29T04:46:42.685Z,71.37
2023-01-29T04:49:24.833Z,70.78
2023-01-29T04:52:07.918Z,71.05
2023-01-29T04:54:56.713Z,71.64
2023-01-29T04:57:37.425Z,71.73
2023-01-29T05:00:17.336Z,71.90
2023-01-29T05:02:51.535Z,71.86
2023-01-29T05:05:24.045Z,71.05
2023-01-29T05:07:58.968Z,71.34
2023-01-29T05:10:31.603Z,71.31
2023-01-29T05:13:09.197Z,71.37
2023-01-29T05:15:48.414Z,71.47
2023-01-29T05:18:21.708Z,72.05
2023-01-29T05:20:57.928Z,71.44
2023-01-29T05:23:30.879Z,71.07
2023-01-29T05:26:04.965Z,71.76
2023-01-29T05:28:39.222Z,70.78
2023-01-29T05:31:11.866Z,70.66
2023-01-29T05:33:45.113Z,71.80
2023-01-29T05:36:17.835Z,71.66
2023-01-29T05:38:51.069Z,71.37
2023-01-29T05:41:24.071Z,71.80
2023-01-29T05:43:58.475Z,71.84
2023-01-29T05:46:31.540Z,71.79
2023-01-29T05:49:04.411Z,71.09
2023-01-29T05:51:37.455Z,71.01
2023-01-29T05:54:12.325Z,71.72
2023-01-29T05:56:45.395Z,70.58
2023-01-29T05:59:19.937Z,71.15
2023-01-29T06:01:53.075Z,71.94
2023-01-29T06:04:26.142Z,71.79
2023-01-29T06:06:59.035Z,70.99
2023-01-29T06:09:31.818Z,70.77
2023-01-29T06:12:06.493Z,71.49
2023-01-29T06:14:40.643Z,71.05
2023-01-29T06:17:13.838Z,71.79
2023-01-29T06:19:46.784Z,71.07
2023-01-29T06:22:19.988Z,71.19
2023-01-29T06:24:52.706Z,70.92
2023-01-29T06:27:25.599Z,70.56
2023-01-29T06:29:59.551Z,71.35
2023-01-29T06:32:33.131Z,71.13
2023-01-29T06:35:06.777Z,71.11
2023-01-29T06:37:40.188Z,71.75
2023-01-29T06:40:14.268Z,71.08
2023-01-29T06:42:47.267Z,70.82
2023-01-29T06:45:21.150Z,70.87
2023-01-29T06:47:54.075Z,70.92
2023-01-29T06:50:27.359Z,70.37
2023-01-29T06:53:00.622Z,71.29
2023-01-29T06:55:33.367Z,71.29
2023-01-29T06:58:07.496Z,71.59
2023-01-29T07:00:41.958Z,71.57
2023-01-29T07:03:15.111Z,71.04
2023-01-29T07:05:52.177Z,71.36
2023-01-29T07:08:25.435Z,71.12
2023-01-29T07:11:00.302Z,70.70
2023-01-29T07:13:33.810Z,71.09
2023-01-29T07:16:08.575Z,70.90
2023-01-29T07:18:41.564Z,71.40
2023-01-29T07:21:14.899Z,71.54
2023-01-29T07:23:47.803Z,70.82
2023-01-29T07:26:20.816Z,70.86
2023-01-29T07:28:53.550Z,71.14
2023-01-29T07:31:31.189Z,71.04
2023-01-29T07:34:05.349Z,71.11
2023-01-29T07:36:38.600Z,70.98
2023-01-29T07:39:11.973Z,71.34
2023-01-29T07:41:44.509Z,71.45
2023-01-29T07:44:22.328Z,70.54
2023-01-29T07:46:57.684Z,70.59
2023-01-29T07:49:30.565Z,71.29
2023-01-29T07:52:03.517Z,70.72
2023-01-29T07:54:36.872Z,71.54
2023-01-29T07:57:09.713Z,70.94
2023-01-29T07:59:43.376Z,71.35
2023-01-29T08:02:17.765Z,71.01
2023-01-29T08:04:50.824Z,71.19
2023-01-29T08:07:23.769Z,71.09
2023-01-29T08:09:56.648Z,70.53
2023-01-29T08:12:29.937Z,71.15
2023-01-29T08:15:02.858Z,70.87
2023-01-29T08:17:56.110Z,70.55
2023-01-29T08:20:30.729Z,71.38
2023-01-29T08:23:06.675Z,71.75
2023-01-29T08:25:39.212Z,71.80
2023-01-29T08:28:12.843Z,70.84
2023-01-29T08:30:45.325Z,70.78
2023-01-29T08:33:26.434Z,71.56
2023-01-29T08:36:02.798Z,71.74
2023-01-29T08:38:36.365Z,71.74
2023-01-29T08:41:09.275Z,71.20
2023-01-29T08:43:42.020Z,71.63
2023-01-29T08:46:15.319Z,71.27
2023-01-29T08:48:49.713Z,71.71
2023-01-29T08:51:22.840Z,71.05
2023-01-29T08:53:55.959Z,71.43
2023-01-29T08:56:29.080Z,70.45
2023-01-29T08:59:01.971Z,70.98
2023-01-29T09:01:34.469Z,70.97
2023-01-29T09:04:09.089Z,71.63
2023-01-29T09:06:42.486Z,70.66
2023-01-29T09:09:15.495Z,71.25
2023-01-29T09:11:48.267Z,70.89
2023-01-29T09:14:21.500Z,71.58
2023-01-29T09:16:54.924Z,71.42
2023-01-29T09:19:29.285Z,71.07
2023-01-29T09:22:01.970Z,71.33
2023-01-29T09:24:35.347Z,70.49
2023-01-29T09:27:10.154Z,71.52
2023-01-29T09:29:43.065Z,71.31
2023-01-29T09:32:23.209Z,71.58
2023-01-29T09:35:07.328Z,71.31
2023-01-29T09:37:40.516Z,71.00
2023-01-29T09:40:26.197Z,71.18
2023-01-29T09:43:03.282Z,70.94
2023-01-29T09:45:37.212Z,71.32
2023-01-29T09:48:12.144Z,71.45
2023-01-29T09:50:49.522Z,70.59
2023-01-29T09:53:28.055Z,70.76
2023-01-29T09:56:05.754Z,71.00
2023-01-29T09:58:44.736Z,71.53
2023-01-29T10:01:27.516Z,71.15
2023-01-29T10:04:17.703Z,71.74
2023-01-29T10:07:06.070Z,71.13
2023-01-29T10:10:04.500Z,71.54
2023-01-29T10:12:52.527Z,71.84
2023-01-29T10:15:38.605Z,71.35
2023-01-29T10:18:47.373Z,71.95
2023-01-29T10:21:32.425Z,71.20
2023-01-29T10:24:22.813Z,71.88
2023-01-29T10:26:56.441Z,71.66
2023-01-29T10:29:33.118Z,70.55
2023-01-29T10:32:06.132Z,71.57
2023-01-29T10:34:46.290Z,71.55
2023-01-29T10:37:24.289Z,71.98
2023-01-29T10:40:00.472Z,71.32
2023-01-29T10:42:42.830Z,71.43
2023-01-29T10:45:25.487Z,71.12
2023-01-29T10:48:43.087Z,71.56
2023-01-29T10:51:30.252Z,72.00
2023-01-29T10:54:18.797Z,71.24
2023-01-29T10:57:11.565Z,71.50
2023-01-29T10:59:57.575Z,71.28
2023-01-29T11:02:30.880Z,71.15
2023-01-29T11:05:03.515Z,71.14
2023-01-29T11:07:39.884Z,71.53
2023-01-29T11:10:18.313Z,70.95
2023-01-29T11:12:57.357Z,71.01
2023-01-29T11:15:34.024Z,70.90
2023-01-29T11:18:16.235Z,71.43
2023-01-29T11:21:02.883Z,71.02
2023-01-29T11:23:37.681Z,71.19
2023-01-29T11:26:13.508Z,71.06
2023-01-29T11:28:49.677Z,71.23
2023-01-29T11:31:26.205Z,71.53
2023-01-29T11:34:06.189Z,71.11
2023-01-29T11:36:40.239Z,71.47
2023-01-29T11:39:19.141Z,71.04
2023-01-29T11:41:57.328Z,71.58
2023-01-29T11:44:34.031Z,71.38
2023-01-29T11:47:20.734Z,71.54
2023-01-29T11:49:55.655Z,71.18
2023-01-29T11:52:36.902Z,70.93
2023-01-29T11:55:18.011Z,71.05
2023-01-29T11:57:54.264Z,70.90
2023-01-29T12:00:31.730Z,71.11
2023-01-29T12:03:13.361Z,71.41
2023-01-29T12:05:56.917Z,70.86
2023-01-29T12:08:37.928Z,71.29
2023-01-29T12:11:15.308Z,70.25
2023-01-29T12:13:54.974Z,71.20
2023-01-29T12:16:33.583Z,70.54
2023-01-29T12:19:13.325Z,70.23
2023-01-29T12:21:51.714Z,70.26
2023-01-29T12:24:34.212Z,70.46
2023-01-29T12:27:15.437Z,70.39
2023-01-29T12:29:55.717Z,71.14
2023-01-29T12:32:38.457Z,70.27
2023-01-29T12:35:18.617Z,70.31
2023-01-29T12:37:58.507Z,71.03
2023-01-29T12:40:38.196Z,70.75
2023-01-29T12:43:17.493Z,71.25
2023-01-29T12:45:54.237Z,70.43
2023-01-29T12:48:32.070Z,71.12
2023-01-29T12:51:09.588Z,70.23
2023-01-29T12:53:48.386Z,70.38
2023-01-29T12:56:30.050Z,70.41
2023-01-29T12:59:10.955Z,70.54
2023-01-29T13:01:50.420Z,70.62
2023-01-29T13:04:34.560Z,69.95
2023-01-29T13:07:14.713Z,70.58
2023-01-29T13:09:54.734Z,70.48
2023-01-29T13:12:29.231Z,70.31
2023-01-29T13:15:10.369Z,70.18
2023-01-29T13:17:46.941Z,69.95
2023-01-29T13:20:26.092Z,69.93
2023-01-29T13:23:15.604Z,70.15
2023-01-29T13:25:52.052Z,69.59
2023-01-29T13:28:27.960Z,70.40
2023-01-29T13:31:14.236Z,70.33
2023-01-29T13:33:54.124Z,70.46
2023-01-29T13:36:43.754Z,69.53
2023-01-29T13:39:30.418Z,69.94
2023-01-29T13:42:16.364Z,70.60
2023-01-29T13:44:50.563Z,70.78
2023-01-29T13:47:27.787Z,70.12
2023-01-29T13:50:03.600Z,69.99
2023-01-29T13:52:43.537Z,70.25
2023-01-29T13:55:26.805Z,70.20
2023-01-29T13:58:03.297Z,69.25
2023-01-29T14:00:57.118Z,69.44
2023-01-29T14:04:03.744Z,69.43
2023-01-29T14:06:48.025Z,70.10
2023-01-29T14:10:00.958Z,69.96
2023-01-29T14:12:52.296Z,69.67
2023-01-29T14:15:31.551Z,70.12
2023-01-29T14:18:17.580Z,69.39
2023-01-29T14:21:05.524Z,69.79
2023-01-29T14:23:47.099Z,70.20
2023-01-29T14:26:32.281Z,69.70
2023-01-29T14:29:25.640Z,69.59
2023-01-29T14:32:15.935Z,70.16
2023-01-29T14:34:51.160Z,70.11
2023-01-29T14:37:31.275Z,69.75
2023-01-29T14:40:20.504Z,70.22
2023-01-29T14:43:03.605Z,70.35
2023-01-29T14:45:44.883Z,69.90
2023-01-29T14:48:38.736Z,69.90
2023-01-29T14:51:14.925Z,69.93
2023-01-29T14:53:57.935Z,70.82
2023-01-29T14:56:35.977Z,70.86
2023-01-29T14:59:16.743Z,70.70
2023-01-29T15:01:55.179Z,70.32
2023-01-29T15:04:32.351Z,71.14
2023-01-29T15:07:16.148Z,71.06
2023-01-29T15:09:57.276Z,71.22
2023-01-29T15:12:43.207Z,70.83
2023-01-29T15:18:29.512Z,70.30
2023-01-29T15:21:04.910Z,70.95
2023-01-29T15:23:39.528Z,70.65
2023-01-29T15:26:18.088Z,71.27
2023-01-29T15:29:03.516Z,71.16
2023-01-29T15:31:37.297Z,70.47
2023-01-29T15:34:12.549Z,71.20
2023-01-29T15:36:54.727Z,71.17
2023-01-29T15:39:31.873Z,70.89
2023-01-29T15:42:14.211Z,71.27
2023-01-29T15:44:47.481Z,70.89
2023-01-29T15:47:29.999Z,70.40
2023-01-29T15:50:18.869Z,70.77
2023-01-29T15:52:54.968Z,71.13
2023-01-29T15:55:28.451Z,70.68
2023-01-29T15:58:02.352Z,70.96
2023-01-29T16:00:36.635Z,70.85
2023-01-29T16:03:15.709Z,70.58
2023-01-29T16:05:50.663Z,70.44
2023-01-29T16:08:26.525Z,71.25
2023-01-29T16:11:02.476Z,70.64
2023-01-29T16:13:40.024Z,71.19
2023-01-29T16:16:28.494Z,71.29
2023-01-29T16:19:14.382Z,70.71
2023-01-29T16:21:55.288Z,70.31
2023-01-29T16:24:30.194Z,71.31
2023-01-29T16:27:11.082Z,71.48
2023-01-29T16:29:44.096Z,70.58
2023-01-29T16:32:20.798Z,70.75
2023-01-29T16:34:58.344Z,70.74
2023-01-29T16:37:52.615Z,71.29
2023-01-29T16:40:34.206Z,70.39
2023-01-29T16:43:46.630Z,70.50
2023-01-29T16:46:34.942Z,71.04
2023-01-29T16:49:44.971Z,70.55
2023-01-29T16:52:20.874Z,71.18
2023-01-29T16:55:00.159Z,71.04
2023-01-29T16:57:34.467Z,71.25
2023-01-29T17:00:19.175Z,71.20
2023-01-29T17:02:55.496Z,70.48
2023-01-29T17:05:32.876Z,71.45
2023-01-29T17:08:15.171Z,71.22
2023-01-29T17:10:49.847Z,71.01
2023-01-29T17:13:29.362Z,70.97
2023-01-29T17:16:04.212Z,71.33
2023-01-29T17:18:37.811Z,71.21
2023-01-29T17:21:11.077Z,71.79
2023-01-29T17:23:44.327Z,71.38
2023-01-29T17:26:20.052Z,71.58
2023-01-29T17:28:55.472Z,71.74
2023-01-29T17:31:52.103Z,71.98
2023-01-29T17:34:47.371Z,71.69
2023-01-29T17:37:27.888Z,71.78
2023-01-29T17:40:31.011Z,71.13
2023-01-29T17:43:05.256Z,70.81
2023-01-29T17:45:38.872Z,70.94
2023-01-29T17:48:15.674Z,71.64
2023-01-29T17:50:51.676Z,71.32
2023-01-29T17:53:26.510Z,71.38
2023-01-29T17:56:04.420Z,71.50
2023-01-29T17:58:38.376Z,71.21
2023-01-29T18:01:11.889Z,71.09
2023-01-29T18:03:45.188Z,71.71
2023-01-29T18:06:27.222Z,71.16
2023-01-29T18:09:00.200Z,71.43
2023-01-29T18:11:34.540Z,71.90
2023-01-29T18:14:14.000Z,71.75
2023-01-29T18:16:47.596Z,71.49
2023-01-29T18:19:23.584Z,71.60
2023-01-29T18:21:56.381Z,71.75
2023-01-29T18:24:30.258Z,71.16
2023-01-29T18:27:05.251Z,71.16
2023-01-29T18:29:39.557Z,72.18
2023-01-29T18:32:12.551Z,71.48
2023-01-29T18:34:45.539Z,72.24
2023-01-29T18:37:18.433Z,71.84
2023-01-29T18:41:52.472Z,71.57
2023-01-29T18:44:08.469Z,71.68
2023-01-29T18:46:42.693Z,71.79
2023-01-29T18:49:15.527Z,72.14
2023-01-29T18:51:48.100Z,71.36
2023-01-29T18:54:21.691Z,71.23
2023-01-29T18:57:08.607Z,72.33
2023-01-29T18:59:46.890Z,71.33
2023-01-29T19:02:21.838Z,72.11
2023-01-29T19:04:54.546Z,71.62
2023-01-29T19:07:27.812Z,72.16
2023-01-29T19:10:02.453Z,72.19
2023-01-29T19:12:35.906Z,71.55
2023-01-29T19:15:09.558Z,71.74
2023-01-29T19:17:44.205Z,72.30
2023-01-29T19:20:18.087Z,72.49
2023-01-29T19:22:51.596Z,72.49
2023-01-29T19:25:24.666Z,71.94
2023-01-29T19:27:57.552Z,72.12
2023-01-29T19:30:30.476Z,71.93
2023-01-29T19:33:05.882Z,71.67
2023-01-29T19:35:38.867Z,72.39
2023-01-29T19:38:11.473Z,72.00
2023-01-29T19:40:44.894Z,72.36
2023-01-29T19:43:18.482Z,71.69
2023-01-29T19:45:59.207Z,71.59
2023-01-29T19:48:33.582Z,71.58
2023-01-29T19:51:09.233Z,71.98
2023-01-29T19:53:46.122Z,71.46
2023-01-29T19:56:20.328Z,72.01
2023-01-29T19:58:57.742Z,71.73
2023-01-29T20:01:30.354Z,72.50
2023-01-29T20:04:04.915Z,72.52
2023-01-29T20:06:38.229Z,71.75
2023-01-29T20:09:11.408Z,71.94
2023-01-29T20:11:45.097Z,71.54
2023-01-29T20:14:17.556Z,72.43
2023-01-29T20:16:50.843Z,71.81
2023-01-29T20:19:28.017Z,72.25
2023-01-29T20:22:01.376Z,71.52
2023-01-29T20:24:39.548Z,71.61
2023-01-29T20:27:16.454Z,72.32
2023-01-29T20:29:49.343Z,72.33
2023-01-29T20:32:22.262Z,71.63
2023-01-29T20:34:56.438Z,72.11
2023-01-29T20:37:29.350Z,71.37
2023-01-29T20:40:05.046Z,71.51
2023-01-29T20:42:38.942Z,71.44
2023-01-29T20:45:15.502Z,72.03
2023-01-29T20:47:53.103Z,71.76
2023-01-29T20:50:27.775Z,71.35
2023-01-29T20:53:00.839Z,71.26
2023-01-29T20:55:33.807Z,71.71
2023-01-29T20:58:07.513Z,72.35
2023-01-29T21:00:40.729Z,71.49
2023-01-29T21:03:13.676Z,71.18
2023-01-29T21:05:47.529Z,72.11
2023-01-29T21:08:21.125Z,71.10
2023-01-29T21:10:54.149Z,71.18
2023-01-29T21:13:27.325Z,72.06
2023-01-29T21:16:00.010Z,71.44
2023-01-29T21:18:33.540Z,71.49
2023-01-29T21:21:08.157Z,72.22
2023-01-29T21:23:40.979Z,71.40
2023-01-29T21:26:13.751Z,71.46
2023-01-29T21:28:46.822Z,71.47
2023-01-29T21:31:20.304Z,71.14
2023-01-29T21:33:53.383Z,71.40
2023-01-29T21:36:28.061Z,71.12
2023-01-29T21:39:00.975Z,72.05
2023-01-29T21:41:52.464Z,71.35
2023-01-29T21:44:25.904Z,72.23
2023-01-29T21:46:59.140Z,72.21
2023-01-29T21:49:32.129Z,71.88
2023-01-29T21:52:07.009Z,72.31
2023-01-29T21:54:40.316Z,72.33
2023-01-29T21:57:15.471Z,72.23
2023-01-29T21:59:52.440Z,71.86
2023-01-29T22:02:28.081Z,72.28
2023-01-29T22:05:17.515Z,72.28
2023-01-29T22:07:53.391Z,71.96
2023-01-29T22:10:26.372Z,71.35
2023-01-29T22:13:00.250Z,71.64
2023-01-29T22:15:33.422Z,71.74
2023-01-29T22:18:06.569Z,72.33
2023-01-29T22:20:39.530Z,71.59
2023-01-29T22:23:14.115Z,71.53
2023-01-29T22:25:46.999Z,71.47
2023-01-29T22:28:20.525Z,71.42
2023-01-29T22:30:53.789Z,71.66
2023-01-29T22:33:26.655Z,72.35
2023-01-29T22:36:00.224Z,71.82
2023-01-29T22:38:34.793Z,72.12
2023-01-29T22:41:07.841Z,71.22
2023-01-29T22:43:41.303Z,71.19
2023-01-29T22:46:14.766Z,71.50
2023-01-29T22:48:47.789Z,71.58
2023-01-29T22:51:20.709Z,71.96
2023-01-29T22:53:56.411Z,71.69
2023-01-29T22:56:32.429Z,71.33
2023-01-29T22:59:05.847Z,71.74
2023-01-29T23:01:38.660Z,71.35
2023-01-29T23:04:11.970Z,70.97
2023-01-29T23:06:45.172Z,71.16
2023-01-29T23:09:19.360Z,71.56
2023-01-29T23:11:52.300Z,71.37
2023-01-29T23:14:25.177Z,72.13
2023-01-29T23:16:58.008Z,71.33
2023-01-29T23:19:31.024Z,71.10
2023-01-29T23:22:03.965Z,71.65
2023-01-29T23:24:38.176Z,70.90
2023-01-29T23:27:17.327Z,71.65
2023-01-29T23:29:50.192Z,71.54
2023-01-29T23:32:23.063Z,71.54
2023-01-29T23:34:56.481Z,71.94
2023-01-29T23:37:29.606Z,71.73
2023-01-29T23:40:04.158Z,70.96
2023-01-29T23:42:37.383Z,71.57
2023-01-29T23:45:11.636Z,71.17
2023-01-29T23:47:45.358Z,71.28
2023-01-29T23:50:19.176Z,71.12
2023-01-29T23:52:52.518Z,71.28
2023-01-29T23:55:26.424Z,71.49
2023-01-29T23:57:59.866Z,71.58
